Tiempo atmosférico en la estación meteorológica de Mieres, Asturias (172 m.)



Fecha
DESCASC
Temp. máxima en grados centígrados (hora)
DESCASC
Temp. mínima en grados centígrados (hora)
DESCASC
Temp. media en grados centígrados
DESCASC
Racha de viento máxima en m/sg (hora)
DESCASC
Velocidad máxima media en intervalos de 10 minutos(hora)
DESCASC
Precipitaciones diarias en mm
DESCASC
Precipitaciones de 00:00 a 06:00 en mm
DESCASC
Precipitaciones de 06:00 a 12:00 en mm
DESCASC
Precipitaciones de 12:00 a 18:00 en mm
DESCASC
Precipitaciones de 18:00 a 24:00 en mm
DESCASC

Gráficas

Temp. máximas Temp. mínimas Temp. medias Precipitaciones Rachas de viento máximas Velocidades máximas media en intervalos de 10 minutos

Datos horarios

Fecha y hora oficial Temperatura (ºC) Velocidad del viento (km/h) Dirección del viento Racha (km/h) Dirección de racha Precipitación (mm) Presión (hPa) Tendencia (hPa) Humedad (%)
2020-03-28 23:00:00 8.7 0 Calma 3 Nordeste 0 -- -- 91
2020-03-28 22:00:00 9.5 0 Calma 4 Oeste 0 -- -- 89
2020-03-28 21:00:00 10.3 0 Calma 10 Noroeste 0 -- -- 85
2020-03-28 20:00:00 11.8 4 Norte 15 Norte 0 -- -- 78
2020-03-28 19:00:00 13.2 5 Norte 17 Norte 0 -- -- 73
2020-03-28 18:00:00 14.9 8 Norte 18 Norte 0 -- -- 65
2020-03-28 17:00:00 15.8 9 Norte 23 Norte 0 -- -- 59
2020-03-28 16:00:00 17 10 Norte 21 Nordeste 0 -- -- 59
2020-03-28 15:00:00 16.9 7 Norte 21 Norte 0 -- -- 55
2020-03-28 14:00:00 16.8 4 Nordeste 18 Norte 0 -- -- 53
2020-03-28 13:00:00 15.8 5 Noroeste 22 Nordeste 0 -- -- 54
2020-03-28 12:00:00 14.2 5 Noroeste 14 Noroeste 0 -- -- 57
2020-03-28 11:00:00 11.8 3 Sur 8 Sudoeste 0 -- -- 63
2020-03-28 10:00:00 8.3 0 Calma 4 Sur 0 -- -- 76
2020-03-28 09:00:00 4.5 0 Calma 3 Nordeste 0 -- -- 96
2020-03-28 08:00:00 2.6 0 Calma 3 Nordeste 0 -- -- 98
2020-03-28 07:00:00 2.7 0 Calma 5 Este 0 -- -- 97
2020-03-28 06:00:00 3 0 Calma 6 Nordeste 0 -- -- 97
2020-03-28 05:00:00 3.3 0 Calma 5 Nordeste 0 -- -- 97
2020-03-28 04:00:00 3.6 0 Calma 3 Norte 0 -- -- 97
2020-03-28 03:00:00 4.1 0 Calma 2 Nordeste 0 -- -- 96
2020-03-28 02:00:00 4.7 0 Calma 3 Nordeste 0 -- -- 95
2020-03-28 01:00:00 5.3 0 Calma 3 Norte 0 -- -- 93
2020-03-28 00:00:00 5.9 0 Calma 3 Nordeste 0 -- -- 91
2020-03-27 23:00:00 6.6 0 Calma 4 Norte 0 -- -- 88
2020-03-27 22:00:00 7.3 0 Calma 3 Nordeste 0 -- -- 85
2020-03-27 21:00:00 8.8 0 Calma 4 Sudoeste 0 -- -- 80
2020-03-27 20:00:00 10.9 0 Calma 9 Noroeste 0 -- -- 72
2020-03-27 19:00:00 13.1 4 Norte 19 Norte 0 -- -- 62
2020-03-27 18:00:00 13.8 10 Nordeste 21 Norte 0 -- -- 58
2020-03-27 17:00:00 15.2 6 Nordeste 22 Nordeste 0 -- -- 50
2020-03-27 16:00:00 14.7 7 Nordeste 18 Norte 0 -- -- 47
2020-03-27 15:00:00 15 8 Este 23 Norte 0 -- -- 43
2020-03-27 14:00:00 14.7 12 Norte 23 Nordeste 0 -- -- 47
2020-03-27 13:00:00 14.3 6 Este 17 Nordeste 0 -- -- 39
2020-03-27 12:00:00 13 5 Este 14 Nordeste 0 -- -- 44
2020-03-27 11:00:00 11.2 3 Nordeste 13 Nordeste 0 -- -- 54
2020-03-27 10:00:00 7.6 2 Sudeste 6 Este 0 -- -- 73
2020-03-27 09:00:00 3.8 0 Calma 6 Norte 0 -- -- 91
2020-03-27 08:00:00 1.9 0 Calma 4 Nordeste 0 -- -- 96
2020-03-27 07:00:00 2.1 0 Calma 6 Nordeste 0 -- -- 95
2020-03-27 06:00:00 2.6 0 Calma 5 Nordeste 0 -- -- 94
2020-03-27 05:00:00 3.2 2 Nordeste 5 Nordeste 0 -- -- 91
2020-03-27 04:00:00 3.9 2 Nordeste 4 Nordeste 0 -- -- 89
2020-03-27 03:00:00 4.8 0 Calma 4 Nordeste 0 -- -- 85
2020-03-27 02:00:00 6.5 4 Nordeste 6 Nordeste 0 -- -- 77
2020-03-27 01:00:00 8.3 0 Calma 9 Norte 0 -- -- 69
2020-03-27 00:00:00 8.7 4 Norte 17 Norte 0 -- -- 67
2020-03-26 23:00:00 9 6 Nordeste 17 Norte 0 -- -- 69
2020-03-26 22:00:00 8.1 0 Calma 4 Sudoeste 0 -- -- 78
2020-03-26 21:00:00 8 0 Calma 3 Sudoeste 0 -- -- 75
2020-03-26 20:00:00 9.9 0 Calma 7 Nordeste 0 -- -- 64
2020-03-26 19:00:00 11.7 3 Norte 15 Norte 0 -- -- 52
2020-03-26 18:00:00 12.4 6 Norte 19 Norte 0 -- -- 51
2020-03-26 17:00:00 13.1 8 Noroeste 18 Norte 0 -- -- 50
2020-03-26 16:00:00 13.6 6 Noroeste 23 Norte 0 -- -- 50
2020-03-26 15:00:00 14.2 6 Norte 22 Norte 0 -- -- 51
2020-03-26 14:00:00 13.7 6 Norte 15 Nordeste 0 -- -- 48
2020-03-26 13:00:00 13.3 5 Este 14 Sudeste 0 -- -- 54
2020-03-26 12:00:00 12.1 3 Este 12 Nordeste 0 -- -- 58
2020-03-26 11:00:00 11.8 4 Oeste 10 Nordeste 0 -- -- 57
2020-03-26 10:00:00 8.9 0 Calma 6 Este 0 -- -- 73
2020-03-26 09:00:00 7.1 0 Calma 8 Sudeste 0 -- -- 78
2020-03-26 08:00:00 6.6 3 Este 6 Norte 0 -- -- 81
2020-03-26 07:00:00 6.5 3 Este 7 Nordeste 0 -- -- 82
2020-03-26 06:00:00 6.8 2 Este 8 Nordeste 0 -- -- 86
2020-03-26 05:00:00 6.9 2 Este 9 Este 0 -- -- 86
2020-03-26 04:00:00 7.4 2 Nordeste 5 Nordeste 0 -- -- 87
2020-03-26 03:00:00 8 3 Nordeste 6 Nordeste 0 -- -- 87
2020-03-26 02:00:00 8.9 2 Nordeste 7 Nordeste 0 -- -- 84
2020-03-26 01:00:00 9.1 2 Este 5 Nordeste 0 -- -- 84
2020-03-26 00:00:00 8.6 2 Nordeste 4 Nordeste 0 -- -- 93
2020-03-25 23:00:00 8.2 0 Calma 3 Norte 0 -- -- 93
2020-03-25 22:00:00 9.4 0 Calma 2 Nordeste 0 -- -- 90
2020-03-25 21:00:00 10.8 0 Calma 3 Nordeste 0 -- -- 84
2020-03-25 20:00:00 12.6 0 Calma 11 Noroeste 0 -- -- 75
2020-03-25 19:00:00 14.3 4 Noroeste 16 Norte 0 -- -- 70
2020-03-25 18:00:00 16.1 5 Norte 17 Norte 0 -- -- 61
2020-03-25 17:00:00 17.3 9 Norte 21 Norte 0 -- -- 52
2020-03-25 16:00:00 18.1 9 Norte 28 Norte 0 -- -- 53
2020-03-25 15:00:00 19.3 8 Norte 19 Norte 0 -- -- 48
2020-03-25 14:00:00 19.3 8 Norte 18 Nordeste 0 -- -- 42
2020-03-25 13:00:00 18.7 4 Norte 15 Noroeste 0 -- -- 49
2020-03-25 12:00:00 17.3 5 Nordeste 15 Nordeste 0 -- -- 56
2020-03-25 11:00:00 14.5 3 Sudoeste 6 Sudoeste 0 -- -- 75
2020-03-25 10:00:00 9.8 0 Calma 3 Este 0 -- -- 99
2020-03-25 09:00:00 7.3 0 Calma 2 Sudeste 0 -- -- 100
2020-03-25 08:00:00 6.1 0 Calma 2 Nordeste 0 -- -- 99
2020-03-25 07:00:00 6.2 0 Calma 3 Norte 0 -- -- 99
2020-03-25 06:00:00 6.6 0 Calma 3 Norte 0 -- -- 99
2020-03-25 05:00:00 6.9 0 Calma 3 Nordeste 0 -- -- 98
2020-03-25 04:00:00 7.3 0 Calma 0 Calma 0 -- -- 98
2020-03-25 03:00:00 7.8 0 Calma 2 Este 0 -- -- 98
2020-03-25 02:00:00 8.2 0 Calma 2 Nordeste 0 -- -- 97
2020-03-25 01:00:00 8.8 0 Calma 3 Norte 0 -- -- 95
2020-03-25 00:00:00 9.5 0 Calma 2 Nordeste 0 -- -- 93
2020-03-24 23:00:00 10.3 0 Calma 3 Nordeste 0 -- -- 90
2020-03-24 22:00:00 11.4 0 Calma 5 Nordeste 0 -- -- 87
2020-03-24 21:00:00 12.9 0 Calma 4 Norte 0 -- -- 82
2020-03-24 20:00:00 15.5 2 Oeste 8 Oeste 0 -- -- 71
2020-03-24 19:00:00 17.7 5 Noroeste 13 Norte 0 -- -- 59
2020-03-24 18:00:00 19.9 5 Nordeste 18 Norte 0 -- -- 52
2020-03-24 17:00:00 20.3 7 Norte 24 Norte 0 -- -- 54
2020-03-24 16:00:00 20.1 8 Norte 24 Norte 0 -- -- 57
2020-03-24 15:00:00 20.4 8 Norte 24 Norte 0 -- -- 57
2020-03-24 14:00:00 20.2 9 Norte 19 Nordeste 0 -- -- 53
2020-03-24 13:00:00 18.9 9 Norte 19 Nordeste 0 -- -- 60
2020-03-24 12:00:00 17.1 3 Sudeste 5 Sudeste 0 -- -- 67
2020-03-24 11:00:00 13.3 2 Norte 6 Noroeste 0 -- -- 78
2020-03-24 10:00:00 10.9 0 Calma 8 Este 0 -- -- 89
2020-03-24 09:00:00 8.5 3 Nordeste 5 Nordeste 0 -- -- 99
2020-03-24 08:00:00 7.2 0 Calma 3 Nordeste 0 -- -- 99
2020-03-24 07:00:00 7.1 0 Calma 4 Nordeste 0 -- -- 98
2020-03-24 06:00:00 7.4 2 Nordeste 4 Nordeste 0 -- -- 97
2020-03-24 05:00:00 8 0 Calma 5 Nordeste 0 -- -- 96
2020-03-24 04:00:00 8.8 0 Calma 4 Nordeste 0 -- -- 94
2020-03-24 03:00:00 10.3 0 Calma 3 Nordeste 0 -- -- 92
2020-03-24 02:00:00 11.1 0 Calma 4 Nordeste 0 -- -- 90
2020-03-24 01:00:00 11 0 Calma 4 Nordeste 0 -- -- 90
2020-03-24 00:00:00 11 0 Calma 4 Sudoeste 0 -- -- 90
2020-03-23 23:00:00 12 0 Calma 9 Norte 0 -- -- 86
2020-03-23 22:00:00 12.4 5 Nordeste 10 Nordeste 0 -- -- 83
2020-03-23 21:00:00 12.6 3 Norte 13 Nordeste 0 -- -- 84
2020-03-23 20:00:00 12.9 3 Norte 13 Nordeste 0 -- -- 81
2020-03-23 19:00:00 13.3 7 Nordeste 16 Nordeste 0 -- -- 80
2020-03-23 18:00:00 13.8 4 Nordeste 19 Oeste 0 -- -- 76
2020-03-23 17:00:00 14.3 3 Noroeste 10 Noroeste 0 -- -- 72
2020-03-23 16:00:00 14.3 5 Noroeste 14 Oeste 0 -- -- 74
2020-03-23 15:00:00 15 7 Norte 17 Noroeste 0 -- -- 72
2020-03-23 14:00:00 15.4 8 Norte 19 Norte 0 -- -- 69
2020-03-23 13:00:00 16 9 Nordeste 22 Nordeste 0 -- -- 68
2020-03-23 12:00:00 15 6 Norte 14 Norte 0 -- -- 71
2020-03-23 11:00:00 13.6 4 Norte 10 Norte 0 -- -- 80
2020-03-23 10:00:00 11.9 0 Calma 4 Norte 0 -- -- 88
2020-03-23 09:00:00 11.4 2 Sur 4 Sudoeste 0 -- -- 92
2020-03-23 08:00:00 11.1 0 Calma 2 Nordeste 0 -- -- 93
2020-03-23 07:00:00 11.3 0 Calma 4 Norte 0 -- -- 91
2020-03-23 06:00:00 11.2 0 Calma 7 Norte 0 -- -- 92
2020-03-23 05:00:00 11.2 2 Nordeste 4 Nordeste 0 -- -- 92
2020-03-23 04:00:00 11.7 0 Calma 5 Norte 0 -- -- 90
2020-03-23 03:00:00 11.7 2 Norte 7 Norte 0 -- -- 91
2020-03-23 02:00:00 12 0 Calma 5 Noroeste 0 -- -- 91
2020-03-23 01:00:00 12.1 4 Noroeste 6 Nordeste 0 -- -- 89
2020-03-23 00:00:00 12.3 2 Nordeste 5 Nordeste 0 -- -- 89
2020-03-22 23:00:00 12.5 3 Noroeste 6 Norte 0 -- -- 87
2020-03-22 22:00:00 12.6 2 Norte 7 Norte 0 -- -- 85
2020-03-22 21:00:00 12.8 2 Norte 10 Norte 0 -- -- 82
2020-03-22 20:00:00 13.1 4 Norte 12 Nordeste 0 -- -- 82
2020-03-22 19:00:00 13.7 4 Norte 14 Norte 0 -- -- 79
2020-03-22 18:00:00 14.5 6 Norte 18 Norte 0 -- -- 76
2020-03-22 17:00:00 14.9 7 Norte 19 Norte 0 -- -- 75
2020-03-22 16:00:00 15.6 11 Nordeste 26 Nordeste 0 -- -- 73
2020-03-22 15:00:00 16.3 7 Norte 17 Oeste 0 -- -- 69
2020-03-22 14:00:00 15.8 4 Noroeste 11 Noroeste 0 -- -- 72
2020-03-22 13:00:00 15.2 5 Norte 14 Norte 0 -- -- 74
2020-03-22 12:00:00 14.6 3 Sur 6 Nordeste 0 -- -- 75
2020-03-22 11:00:00 13 0 Calma 4 Sudoeste 0 -- -- 86
2020-03-22 10:00:00 11.4 3 Sudoeste 5 Sudoeste 0 -- -- 96
2020-03-22 09:00:00 10.9 0 Calma 2 Oeste 0 -- -- 97
2020-03-22 08:00:00 10.8 0 Calma 3 Sur 0 -- -- 96
2020-03-22 07:00:00 10.8 0 Calma 7 Norte 0 -- -- 95
2020-03-22 06:00:00 11 3 Norte 10 Noroeste 0 -- -- 94
2020-03-22 05:00:00 11.4 3 Nordeste 11 Norte 0 -- -- 93
2020-03-22 04:00:00 11.5 5 Norte 11 Norte 0 -- -- 92
2020-03-22 03:00:00 11.8 0 Calma 4 Sudoeste 0 -- -- 92
2020-03-22 02:00:00 11.9 0 Calma 6 Norte 0 -- -- 91
2020-03-22 01:00:00 12 0 Calma 4 Nordeste 0 -- -- 90
2020-03-22 00:00:00 12 0 Calma 8 Nordeste 0 -- -- 90
2020-03-21 23:00:00 11.9 3 Norte 9 Nordeste 0 -- -- 90
2020-03-21 22:00:00 11.4 2 Sudoeste 4 Sudoeste 0 -- -- 93
2020-03-21 21:00:00 11.5 0 Calma 6 Norte 0 -- -- 90
2020-03-21 20:00:00 12.7 0 Calma 9 Oeste 0 -- -- 87
2020-03-21 19:00:00 13 5 Norte 18 Norte 0 -- -- 85
2020-03-21 18:00:00 13.6 8 Norte 23 Norte 0 -- -- 84
2020-03-21 17:00:00 15.1 7 Norte 27 Norte 0 -- -- 80
2020-03-21 16:00:00 17 12 Norte 24 Norte 0 -- -- 74
2020-03-21 15:00:00 18.6 9 Norte 22 Nordeste 0 -- -- 64
2020-03-21 14:00:00 17.5 5 Noroeste 21 Norte 0 -- -- 71
2020-03-21 13:00:00 18.4 5 Noroeste 21 Nordeste 0 -- -- 68
2020-03-21 12:00:00 18.2 11 Norte 21 Norte 0 -- -- 66
2020-03-21 11:00:00 18.8 4 Sudeste 13 Este 0 -- -- 52
2020-03-21 10:00:00 14.2 7 Nordeste 14 Norte 0 -- -- 80
2020-03-21 09:00:00 11.1 2 Este 18 Este 0 -- -- 91
2020-03-21 08:00:00 9.8 0 Calma 14 Nordeste 0 -- -- 96
2020-03-21 07:00:00 10.2 2 Nordeste 8 Nordeste 0 -- -- 96
2020-03-21 06:00:00 11.1 4 Nordeste 5 Nordeste 0 -- -- 96
2020-03-21 05:00:00 11.6 3 Nordeste 7 Norte 0 -- -- 98
2020-03-21 04:00:00 11.4 0 Calma 5 Sudoeste 0 -- -- 98
2020-03-21 03:00:00 11.6 0 Calma 4 Sur 0 -- -- 97
2020-03-21 02:00:00 11.9 0 Calma 4 Norte 0 -- -- 97
2020-03-21 01:00:00 12.2 0 Calma 6 Sudoeste 0 -- -- 96
2020-03-21 00:00:00 12.5 0 Calma 6 Sudoeste 0 -- -- 95
2020-03-20 23:00:00 13 0 Calma 4 Sudoeste 0 -- -- 93
2020-03-20 22:00:00 13.3 0 Calma 4 Sudoeste 0 -- -- 91
2020-03-20 21:00:00 13.5 0 Calma 3 Sudoeste 0 -- -- 90
2020-03-20 20:00:00 14.6 0 Calma 7 Nordeste 0 -- -- 85
2020-03-20 19:00:00 16 2 Este 12 Nordeste 0 -- -- 80
2020-03-20 18:00:00 17.2 3 Nordeste 12 Nordeste 0 -- -- 76
2020-03-20 17:00:00 17.8 3 Noroeste 14 Nordeste 0 -- -- 73
2020-03-20 16:00:00 17.2 6 Norte 13 Norte 0 -- -- 76
2020-03-20 15:00:00 16.2 7 Norte 17 Norte 0 -- -- 79
2020-03-20 14:00:00 16.5 7 Norte 25 Norte 0 -- -- 75
2020-03-20 13:00:00 17.2 4 Este 14 Sur 0 -- -- 58
2020-03-20 12:00:00 14.1 2 Sur 8 Sudoeste 0 -- -- 86
2020-03-20 11:00:00 13.1 0 Calma 6 Noroeste 0 -- -- 88
2020-03-20 10:00:00 12.5 0 Calma 5 Este 0 -- -- 89
2020-03-20 09:00:00 11.3 0 Calma 8 Este 0 -- -- 93
2020-03-20 08:00:00 10.8 4 Este 7 Este 0 -- -- 95
2020-03-20 07:00:00 11 2 Nordeste 6 Este 0 -- -- 98
2020-03-20 06:00:00 11.2 0 Calma 2 Sudoeste 0 -- -- 99
2020-03-20 05:00:00 11.3 0 Calma 5 Nordeste 0 -- -- 99
2020-03-20 04:00:00 11.3 0 Calma 5 Nordeste 0 -- -- 99
2020-03-20 03:00:00 11.5 2 Norte 5 Norte 0 -- -- 99
2020-03-20 02:00:00 11.4 0 Calma 8 Nordeste 0 -- -- 99
2020-03-20 01:00:00 11.3 7 Nordeste 10 Norte 0 -- -- 98
2020-03-20 00:00:00 11.7 6 Nordeste 11 Nordeste 0 -- -- 96
2020-03-19 23:00:00 12.3 2 Sudeste 10 Nordeste 0 -- -- 96
2020-03-19 22:00:00 12.4 0 Calma 6 Sudoeste 0 -- -- 94
2020-03-19 21:00:00 13.6 0 Calma 8 Oeste 0 -- -- 92
2020-03-19 20:00:00 14.9 0 Calma 8 Norte 0 -- -- 90
2020-03-19 19:00:00 15.9 2 Sudoeste 9 Oeste 0 -- -- 88
2020-03-19 18:00:00 16.8 4 Norte 17 Norte 0 -- -- 78
2020-03-19 17:00:00 17.6 11 Nordeste 23 Nordeste 0 -- -- 74
2020-03-19 16:00:00 19.4 10 Norte 17 Nordeste 0 -- -- 69
2020-03-19 15:00:00 19.2 10 Nordeste 19 Norte 0 -- -- 69
2020-03-19 14:00:00 18.2 11 Nordeste 20 Nordeste 0 -- -- 70
2020-03-19 13:00:00 16.7 5 Norte 15 Nordeste 0 -- -- 75
2020-03-19 12:00:00 13.9 3 Sudoeste 9 Sudoeste 0 -- -- 84
2020-03-19 11:00:00 11.8 3 Sudoeste 6 Sudoeste 0 -- -- 91
2020-03-19 10:00:00 10.4 3 Oeste 6 Sudoeste 0 -- -- 96
2020-03-19 09:00:00 9.7 2 Este 7 Sudeste 0 -- -- 96
2020-03-19 08:00:00 9.5 3 Nordeste 8 Este 0 -- -- 97
2020-03-19 07:00:00 9.6 4 Este 10 Sudeste 0 -- -- 99
2020-03-19 06:00:00 9.9 0 Calma 5 Noroeste 0 -- -- 99
2020-03-19 05:00:00 10.1 0 Calma 6 Sur 0 -- -- 100
2020-03-19 04:00:00 10.2 3 Nordeste 5 Nordeste 0 -- -- 99
2020-03-19 03:00:00 10.3 0 Calma 5 Sudeste 0 -- -- 99
2020-03-19 02:00:00 10.3 0 Calma 4 Sur 0 -- -- 99
2020-03-19 01:00:00 10.3 2 Sur 3 Sudoeste 0 -- -- 98
2020-03-19 00:00:00 10.3 0 Calma 6 Sudoeste 0 -- -- 97
2020-03-18 23:00:00 10.6 2 Sudoeste 4 Sur 0 -- -- 95
2020-03-18 22:00:00 11.3 2 Sur 5 Sudoeste 0 -- -- 93
2020-03-18 21:00:00 12.4 0 Calma 4 Sudeste 0 -- -- 89
2020-03-18 20:00:00 13.8 3 Este 9 Nordeste 0 -- -- 84
2020-03-18 19:00:00 15.4 7 Nordeste 15 Nordeste 0 -- -- 78
2020-03-18 18:00:00 16.8 10 Norte 21 Norte 0 -- -- 72
2020-03-18 17:00:00 17.9 11 Norte 24 Norte 0 -- -- 68
2020-03-18 16:00:00 19.3 13 Norte 22 Nordeste 0 -- -- 64
2020-03-18 15:00:00 20.9 10 Norte 18 Norte 0 -- -- 57
2020-03-18 14:00:00 20.5 6 Norte 18 Norte 0 -- -- 57
2020-03-18 13:00:00 19.3 3 Sudoeste 7 Sudoeste 0 -- -- 54
2020-03-18 12:00:00 15.9 2 Sur 5 Sudeste 0 -- -- 67
2020-03-18 11:00:00 11.9 0 Calma 5 Sur 0 -- -- 79
2020-03-18 10:00:00 9 3 Sur 7 Este 0 -- -- 91
2020-03-18 09:00:00 7.6 3 Este 11 Este 0 -- -- 96
2020-03-18 08:00:00 7.6 4 Sudeste 16 Nordeste 0 -- -- 95
2020-03-18 07:00:00 8.2 3 Sudeste 11 Este 0 -- -- 95
2020-03-18 06:00:00 8.6 3 Este 6 Este 0 -- -- 94
2020-03-18 05:00:00 8.7 3 Nordeste 6 Norte 0 -- -- 93
2020-03-18 04:00:00 8.7 2 Nordeste 10 Nordeste 0 -- -- 93
2020-03-18 03:00:00 8.9 3 Este 8 Sudeste 0 -- -- 92
2020-03-18 02:00:00 9.2 2 Este 6 Este 0 -- -- 94
2020-03-18 01:00:00 9.1 2 Nordeste 6 Nordeste 0 -- -- 96
2020-03-18 00:00:00 9.3 0 Calma 6 Nordeste 0 -- -- 94
2020-03-17 23:00:00 10.4 0 Calma 8 Este 0 -- -- 91
2020-03-17 22:00:00 11.3 0 Calma 4 Sudoeste 0 -- -- 90
2020-03-17 21:00:00 11.8 0 Calma 4 Norte 0 -- -- 87
2020-03-17 20:00:00 12.3 0 Calma 6 Oeste 0 -- -- 85
2020-03-17 19:00:00 12.8 4 Noroeste 10 Noroeste 0 -- -- 80
2020-03-17 18:00:00 13 6 Noroeste 12 Norte 0 -- -- 78
2020-03-17 17:00:00 12.8 6 Norte 15 Norte 0 -- -- 79
2020-03-17 16:00:00 13.8 7 Norte 19 Norte 0 -- -- 74
2020-03-17 15:00:00 14.3 6 Norte 15 Norte 0 -- -- 71
2020-03-17 14:00:00 13.7 9 Norte 14 Norte 0 -- -- 71
2020-03-17 13:00:00 13.7 3 Norte 9 Nordeste 0 -- -- 63
2020-03-17 12:00:00 12.9 4 Sur 10 Sudeste 0 -- -- 67
2020-03-17 11:00:00 11.3 4 Este 12 Este 0 -- -- 72
2020-03-17 10:00:00 9.4 4 Oeste 13 Nordeste 0 -- -- 82
2020-03-17 09:00:00 7.9 0 Calma 5 Sudoeste 0 -- -- 94
2020-03-17 08:00:00 7.3 0 Calma 4 Oeste 0 -- -- 98
2020-03-17 07:00:00 7.2 2 Nordeste 3 Nordeste 0 -- -- 98
2020-03-17 06:00:00 7.2 0 Calma 5 Norte 0 -- -- 99
2020-03-17 05:00:00 7.2 0 Calma 3 Norte 0 -- -- 98
2020-03-17 04:00:00 7.1 0 Calma 3 Norte 0 -- -- 99
2020-03-17 03:00:00 7.2 0 Calma 2 Norte 0 -- -- 99
2020-03-17 02:00:00 7.1 0 Calma 3 Norte 0 -- -- 99
2020-03-17 01:00:00 7.1 0 Calma 4 Nordeste 0 -- -- 98
2020-03-17 00:00:00 6.9 0 Calma 3 Norte 0.6 -- -- 98
2020-03-16 23:00:00 6.6 0 Calma 3 Nordeste 0 -- -- 97
2020-03-16 22:00:00 6.7 0 Calma 4 Nordeste 0 -- -- 94
2020-03-16 21:00:00 8 0 Calma 3 Sudoeste 0 -- -- 91
2020-03-16 20:00:00 9.2 2 Sudoeste 7 Noroeste 0 -- -- 85
2020-03-16 19:00:00 9.9 0 Calma 13 Norte 0 -- -- 75
2020-03-16 18:00:00 10 2 Noroeste 12 Oeste 0 -- -- 79
2020-03-16 17:00:00 9.5 3 Noroeste 15 Noroeste 1.2 -- -- 86
2020-03-16 16:00:00 10.2 4 Oeste 19 Noroeste 0 -- -- 76
2020-03-16 15:00:00 12 5 Nordeste 15 Nordeste 0.4 -- -- 68
2020-03-16 14:00:00 9.5 5 Oeste 13 Oeste 1.6 -- -- 85
2020-03-16 13:00:00 9.3 5 Sudoeste 16 Oeste 2 -- -- 85
2020-03-16 12:00:00 8.2 0 Calma 5 Nordeste 0.4 -- -- 91
2020-03-16 11:00:00 6.3 3 Noroeste 10 Norte 0.6 -- -- 97
2020-03-16 10:00:00 5.5 5 Este 12 Este 2 -- -- 97
2020-03-16 09:00:00 5 4 Este 9 Este 1.8 -- -- 98
2020-03-16 08:00:00 4.9 2 Este 6 Nordeste 0 -- -- 98
2020-03-16 07:00:00 4.6 3 Norte 8 Norte 1.4 -- -- 98
2020-03-16 06:00:00 4.3 0 Calma 8 Oeste 1.2 -- -- 97
2020-03-16 05:00:00 4.2 4 Nordeste 12 Nordeste 1 -- -- 96
2020-03-16 04:00:00 4 0 Calma 8 Nordeste 0 -- -- 95
2020-03-16 03:00:00 4 0 Calma 7 Norte 0.4 -- -- 95
2020-03-16 02:00:00 3.8 2 Este 10 Nordeste 0.4 -- -- 94
2020-03-16 01:00:00 3.9 3 Este 10 Este 1 -- -- 95
2020-03-16 00:00:00 4.1 3 Este 10 Este 1.4 -- -- 94
2020-03-15 23:00:00 4.5 5 Este 15 Nordeste 2.2 -- -- 93
2020-03-15 22:00:00 5.2 2 Este 8 Oeste 1.2 -- -- 94
2020-03-15 21:00:00 5.6 3 Oeste 8 Nordeste 2 -- -- 91
2020-03-15 20:00:00 5.9 0 Calma 9 Nordeste 1.6 -- -- 94
2020-03-15 19:00:00 6.5 4 Noroeste 16 Noroeste 1.6 -- -- 88
2020-03-15 18:00:00 7.6 4 Oeste 13 Nordeste 1.8 -- -- 89
2020-03-15 17:00:00 8.5 6 Nordeste 14 Norte 1.8 -- -- 92
2020-03-15 16:00:00 10.1 5 Nordeste 21 Nordeste 0.2 -- -- 85
2020-03-15 15:00:00 12.6 9 Nordeste 33 Nordeste 0 -- -- 76
2020-03-15 14:00:00 15.9 4 Sudoeste 17 Nordeste 0 -- -- 64
2020-03-15 13:00:00 15 5 Oeste 12 Sur 0 -- -- 65
2020-03-15 12:00:00 12.1 0 Calma 5 Nordeste 0 -- -- 80
2020-03-15 11:00:00 8.2 0 Calma 5 Sudoeste 0 -- -- 99
2020-03-15 10:00:00 6 0 Calma 8 Nordeste 0 -- -- 100
2020-03-15 09:00:00 5.2 3 Nordeste 5 Nordeste 0 -- -- 100
2020-03-15 08:00:00 5 0 Calma 5 Nordeste 0 -- -- 99
2020-03-15 07:00:00 5 0 Calma 4 Este 0 -- -- 99
2020-03-15 06:00:00 5 0 Calma 6 Norte 0 -- -- 98
2020-03-15 05:00:00 5.4 0 Calma 8 Este 0 -- -- 98
2020-03-15 04:00:00 5.7 3 Nordeste 6 Nordeste 0 -- -- 98
2020-03-15 03:00:00 5.9 3 Nordeste 5 Nordeste 0 -- -- 98
2020-03-15 02:00:00 6.2 2 Nordeste 5 Norte 0 -- -- 98
2020-03-15 01:00:00 6.5 0 Calma 5 Nordeste 0 -- -- 97
2020-03-15 00:00:00 7 0 Calma 3 Nordeste 0 -- -- 95
2020-03-14 23:00:00 7.6 0 Calma 4 Nordeste 0 -- -- 94
2020-03-14 22:00:00 8.5 0 Calma 2 Este 0 -- -- 92
2020-03-14 21:00:00 9.7 0 Calma 2 Sur 0 -- -- 88
2020-03-14 20:00:00 11.4 0 Calma 9 Noroeste 0 -- -- 82
2020-03-14 19:00:00 13.5 4 Norte 18 Norte 0 -- -- 69
2020-03-14 18:00:00 15.1 10 Norte 20 Norte 0 -- -- 64
2020-03-14 17:00:00 16.2 11 Norte 22 Nordeste 0 -- -- 59
2020-03-14 16:00:00 17.4 6 Norte 17 Noroeste 0 -- -- 52
2020-03-14 15:00:00 17 7 Norte 19 Noroeste 0 -- -- 56
2020-03-14 14:00:00 16.5 6 Norte 15 Norte 0 -- -- 54
2020-03-14 13:00:00 15.7 3 Norte 11 Norte 0 -- -- 55
2020-03-14 12:00:00 14.5 2 Sudeste 7 Sudoeste 0 -- -- 57
2020-03-14 11:00:00 12.5 2 Sur 5 Sudoeste 0 -- -- 66
2020-03-14 10:00:00 10 3 Este 7 Sudeste 0 -- -- 73
2020-03-14 09:00:00 7.4 5 Este 15 Este 0 -- -- 81
2020-03-14 08:00:00 7.6 2 Este 11 Este 0 -- -- 86
2020-03-14 07:00:00 8.1 4 Este 10 Este 0 -- -- 85
2020-03-14 06:00:00 8.4 0 Calma 2 Sudoeste 0 -- -- 97
2020-03-14 05:00:00 8.5 0 Calma 2 Nordeste 0 -- -- 97
2020-03-14 04:00:00 8.7 0 Calma 2 Norte 0 -- -- 96
2020-03-14 03:00:00 9.2 0 Calma 2 Norte 0 -- -- 96
2020-03-14 02:00:00 9.2 0 Calma 2 Nordeste 0 -- -- 95
2020-03-14 01:00:00 9.2 0 Calma 3 Este 0 -- -- 94
2020-03-14 00:00:00 9.7 0 Calma 4 Este 0 -- -- 92
2020-03-13 23:00:00 10.5 2 Noroeste 4 Norte 0 -- -- 90
2020-03-13 22:00:00 10.7 0 Calma 3 Noroeste 0 -- -- 88
2020-03-13 21:00:00 10.9 2 Nordeste 5 Sudeste 0 -- -- 87
2020-03-13 20:00:00 11 2 Sudeste 6 Noroeste 0 -- -- 85
2020-03-13 19:00:00 11.6 3 Oeste 6 Noroeste 0 -- -- 79
2020-03-13 18:00:00 12.4 3 Sudoeste 6 Sudoeste 0 -- -- 76
2020-03-13 17:00:00 12.4 4 Norte 12 Norte 0 -- -- 76
2020-03-13 16:00:00 12.9 4 Noroeste 11 Norte 0 -- -- 75
2020-03-13 15:00:00 13.1 4 Norte 9 Noroeste 0 -- -- 75
2020-03-13 14:00:00 12.2 0 Calma 8 Oeste 0 -- -- 76
2020-03-13 13:00:00 11.7 5 Noroeste 13 Noroeste 0 -- -- 79
2020-03-13 12:00:00 11.8 3 Nordeste 11 Nordeste 0 -- -- 78
2020-03-13 11:00:00 10.9 4 Nordeste 12 Norte 0 -- -- 82
2020-03-13 10:00:00 10 5 Nordeste 9 Nordeste 0 -- -- 88
2020-03-13 09:00:00 9 4 Sur 6 Sur 0 -- -- 98
2020-03-13 08:00:00 8.7 0 Calma 2 Norte 0 -- -- 99
2020-03-13 07:00:00 8.7 0 Calma 3 Sudoeste 0 -- -- 99
2020-03-13 06:00:00 8.7 2 Sudoeste 6 Oeste 0.2 -- -- 98
2020-03-13 05:00:00 8.7 0 Calma 6 Sudoeste 0 -- -- 98
2020-03-13 04:00:00 8.7 0 Calma 5 Sudoeste 0 -- -- 97
2020-03-13 03:00:00 8.9 0 Calma 8 Noroeste 0.4 -- -- 97
2020-03-13 02:00:00 9 2 Sur 13 Norte 0.4 -- -- 97
2020-03-13 01:00:00 9.1 3 Sudoeste 6 Oeste 0.8 -- -- 99
2020-03-13 00:00:00 9.2 2 Sudoeste 5 Sudoeste 0.4 -- -- 98
2020-03-12 23:00:00 9.4 2 Sudoeste 5 Sudoeste 0.6 -- -- 97
2020-03-12 22:00:00 9.5 2 Noroeste 8 Sudoeste 0.2 -- -- 95
2020-03-12 21:00:00 9.9 3 Noroeste 14 Norte 0.4 -- -- 95
2020-03-12 20:00:00 10.4 0 Calma 8 Norte 0.2 -- -- 96
2020-03-12 19:00:00 10.7 3 Norte 10 Norte 0.4 -- -- 95
2020-03-12 18:00:00 10.9 2 Sur 4 Sur 0.4 -- -- 96
2020-03-12 17:00:00 10.9 2 Sudoeste 5 Norte 0.2 -- -- 95
2020-03-12 16:00:00 11.1 0 Calma 10 Nordeste 0.4 -- -- 93
2020-03-12 15:00:00 11.6 0 Calma 9 Sudoeste 0 -- -- 89
2020-03-12 14:00:00 11.3 4 Norte 12 Norte 0.4 -- -- 93
2020-03-12 13:00:00 11.7 6 Norte 17 Norte 0.4 -- -- 94
2020-03-12 12:00:00 12 2 Sur 5 Sur 0 -- -- 96
2020-03-12 11:00:00 11.9 2 Sur 4 Sur 0.2 -- -- 96
2020-03-12 10:00:00 11.8 0 Calma 2 Sudoeste 0.2 -- -- 97
2020-03-12 09:00:00 11.7 0 Calma 0 Calma 0.2 -- -- 97
2020-03-12 08:00:00 11.8 0 Calma 3 Sudeste 0.2 -- -- 97
2020-03-12 07:00:00 12 0 Calma 5 Sudoeste 0.4 -- -- 97
2020-03-12 06:00:00 12.3 2 Sur 5 Este 0 -- -- 95
2020-03-12 05:00:00 12.4 2 Oeste 6 Sur 0 -- -- 93
2020-03-12 04:00:00 12.4 3 Sudoeste 6 Sudoeste 0 -- -- 93
2020-03-12 03:00:00 12.6 0 Calma 3 Sudoeste 0 -- -- 91
2020-03-12 02:00:00 12.7 0 Calma 4 Noroeste 0 -- -- 90
2020-03-12 01:00:00 12.6 0 Calma 5 Sudoeste 0 -- -- 91
2020-03-12 00:00:00 13 0 Calma 10 Nordeste 0 -- -- 87
2020-03-11 23:00:00 13.1 6 Nordeste 12 Nordeste 0 -- -- 86
2020-03-11 22:00:00 13.7 2 Norte 5 Norte 0 -- -- 82
2020-03-11 21:00:00 13.7 0 Calma 14 Norte 0 -- -- 83
2020-03-11 20:00:00 13.9 5 Norte 16 Norte 0 -- -- 83
2020-03-11 19:00:00 15.4 6 Norte 20 Norte 0 -- -- 76
2020-03-11 18:00:00 17.5 10 Norte 23 Norte 0 -- -- 68
2020-03-11 17:00:00 19.7 13 Norte 21 Norte 0 -- -- 61
2020-03-11 16:00:00 20.7 8 Norte 17 Norte 0 -- -- 57
2020-03-11 15:00:00 20.5 9 Norte 19 Norte 0 -- -- 59
2020-03-11 14:00:00 20.2 8 Norte 20 Nordeste 0 -- -- 58
2020-03-11 13:00:00 19 8 Norte 15 Norte 0 -- -- 60
2020-03-11 12:00:00 16.5 3 Sur 6 Sur 0 -- -- 64
2020-03-11 11:00:00 13.2 2 Sur -- -- -- -- -- 73
2020-03-11 10:00:00 -- -- -- -- -- 0 -- -- --
2020-03-11 09:00:00 6.2 0 Calma 6 Norte 0 -- -- 99
2020-03-11 08:00:00 5.5 0 Calma 4 Nordeste 0 -- -- 99
2020-03-11 07:00:00 5.7 0 Calma 2 Este 0 -- -- 98
2020-03-11 06:00:00 6.1 0 Calma 4 Sur 0 -- -- 99
2020-03-11 05:00:00 6.2 2 Nordeste 4 Nordeste 0 -- -- 98
2020-03-11 04:00:00 6.7 0 Calma 4 Norte 0 -- -- 97
2020-03-11 03:00:00 7 0 Calma 4 Nordeste 0 -- -- 97
2020-03-11 02:00:00 7.5 0 Calma 8 Sudoeste 0 -- -- 96
2020-03-11 01:00:00 7.5 0 Calma 4 Norte 0 -- -- 96
2020-03-11 00:00:00 8.1 0 Calma 3 Nordeste 0 -- -- 94
2020-03-10 23:00:00 8.8 0 Calma 4 Nordeste 0 -- -- 92
2020-03-10 22:00:00 9.7 0 Calma 3 Nordeste 0 -- -- 88
2020-03-10 21:00:00 11.1 0 Calma 4 Nordeste 0 -- -- 82
2020-03-10 20:00:00 13.5 0 Calma 18 Noroeste 0 -- -- 72
2020-03-10 19:00:00 16 7 Norte 17 Norte 0 -- -- 62
2020-03-10 18:00:00 18.3 8 Norte 16 Norte 0 -- -- 57
2020-03-10 17:00:00 18.9 8 Norte 19 Norte 0 -- -- 56
2020-03-10 16:00:00 19.3 9 Norte 17 Nordeste 0 -- -- 54
2020-03-10 15:00:00 18.3 6 Norte 15 Norte 0 -- -- 60
2020-03-10 14:00:00 17.1 6 Norte 18 Norte 0 -- -- 64
2020-03-10 13:00:00 15.6 11 Norte 22 Nordeste 0 -- -- 68
2020-03-10 12:00:00 14.7 12 Nordeste 18 Norte 0 -- -- 68
2020-03-10 11:00:00 11.8 4 Sudoeste 6 Sudoeste 0 -- -- 73
2020-03-10 10:00:00 8.9 3 Sudoeste 8 Sudoeste 0 -- -- 84
2020-03-10 09:00:00 6.1 0 Calma 5 Nordeste 0 -- -- 97
2020-03-10 08:00:00 5.4 0 Calma 5 Norte 0 -- -- 97
2020-03-10 07:00:00 5.2 0 Calma 3 Norte 0 -- -- 97
2020-03-10 06:00:00 5.4 0 Calma 3 Nordeste 0 -- -- 97
2020-03-10 05:00:00 5.8 0 Calma 5 Nordeste 0 -- -- 97
2020-03-10 04:00:00 6.1 0 Calma 2 Norte 0 -- -- 96
2020-03-10 03:00:00 6.7 0 Calma 5 Este 0 -- -- 96
2020-03-10 02:00:00 7 3 Nordeste 4 Norte 0 -- -- 96
2020-03-10 01:00:00 7.4 0 Calma 4 Este 0 -- -- 94
2020-03-10 00:00:00 8.1 0 Calma 5 Nordeste 0 -- -- 92
2020-03-09 23:00:00 9 0 Calma 3 Sudoeste 0 -- -- 89
2020-03-09 22:00:00 9.7 0 Calma 4 Norte 0 -- -- 86
2020-03-09 21:00:00 10.7 0 Calma 6 Oeste 0 -- -- 80
2020-03-09 20:00:00 12.2 5 Norte 20 Norte 0 -- -- 73
2020-03-09 19:00:00 14.1 6 Norte 17 Norte 0 -- -- 67
2020-03-09 18:00:00 15.8 9 Norte 16 Norte 0 -- -- 58
2020-03-09 17:00:00 17.3 4 Noroeste 11 Este 0 -- -- 45
2020-03-09 16:00:00 16.1 3 Oeste 13 Norte 0 -- -- 49
2020-03-09 15:00:00 16.5 5 Sudoeste 21 Nordeste 0 -- -- 46
2020-03-09 14:00:00 15.5 4 Oeste 22 Nordeste 0 -- -- 48
2020-03-09 13:00:00 14.3 5 Norte 24 Nordeste 0 -- -- 52
2020-03-09 12:00:00 13.5 8 Nordeste 17 Nordeste 0 -- -- 56
2020-03-09 11:00:00 11.5 2 Este 5 Este 0 -- -- 73
2020-03-09 10:00:00 9.4 0 Calma 4 Sudoeste 0 -- -- 82
2020-03-09 09:00:00 6.9 0 Calma 5 Norte 0 -- -- 93
2020-03-09 08:00:00 6.6 0 Calma 5 Norte 0 -- -- 93
2020-03-09 07:00:00 6.9 0 Calma 4 Nordeste 0 -- -- 93
2020-03-09 06:00:00 7.2 2 Nordeste 4 Nordeste 0 -- -- 91
2020-03-09 05:00:00 8.1 0 Calma 4 Nordeste 0 -- -- 90
2020-03-09 04:00:00 8.8 0 Calma 5 Nordeste 0 -- -- 88
2020-03-09 03:00:00 9.2 0 Calma 4 Nordeste 0 -- -- 87
2020-03-09 02:00:00 9.3 2 Nordeste 6 Nordeste 0 -- -- 87
2020-03-09 01:00:00 10.5 3 Norte 10 Nordeste 0 -- -- 81
2020-03-09 00:00:00 11.9 4 Nordeste 26 Oeste 0 -- -- 73
2020-03-08 23:00:00 13.9 8 Oeste 30 Noroeste 0 -- -- 51
2020-03-08 22:00:00 12.1 5 Nordeste 21 Nordeste 0 -- -- 72
2020-03-08 21:00:00 13 2 Nordeste 9 Nordeste 0 -- -- 75
2020-03-08 20:00:00 13.4 0 Calma 12 Nordeste 0 -- -- 72
2020-03-08 19:00:00 14 4 Nordeste 18 Nordeste 0 -- -- 69
2020-03-08 18:00:00 15.3 7 Norte 39 Nordeste 0 -- -- 66
2020-03-08 17:00:00 18.2 15 Nordeste 26 Noroeste 0 -- -- 48
2020-03-08 16:00:00 19.1 10 Noroeste 28 Norte 0 -- -- 45
2020-03-08 15:00:00 20.9 8 Norte 20 Noroeste 0 -- -- 41
2020-03-08 14:00:00 19.7 5 Este 17 Norte 0 -- -- 49
2020-03-08 13:00:00 15.5 2 Sudoeste 5 Este 0 -- -- 67
2020-03-08 12:00:00 11.6 0 Calma 6 Sudoeste 0 -- -- 77
2020-03-08 11:00:00 9.8 3 Norte 12 Norte 0 -- -- 82
2020-03-08 10:00:00 8.5 5 Norte 12 Nordeste 0 -- -- 87
2020-03-08 09:00:00 7.8 3 Noroeste 9 Sudoeste 0 -- -- 86
2020-03-08 08:00:00 7.1 6 Nordeste 13 Norte 0 -- -- 88
2020-03-08 07:00:00 6.5 3 Oeste 9 Este 0 -- -- 91
2020-03-08 06:00:00 6.2 3 Sur 16 Nordeste 0 -- -- 92
2020-03-08 05:00:00 5.6 5 Nordeste 13 Norte 0 -- -- 97
2020-03-08 04:00:00 5 0 Calma 5 Nordeste 0 -- -- 98
2020-03-08 03:00:00 4.8 0 Calma 6 Norte 0 -- -- 97
2020-03-08 02:00:00 5.2 0 Calma 8 Nordeste 0 -- -- 97
2020-03-08 01:00:00 5.4 0 Calma 5 Norte 0 -- -- 96
2020-03-08 00:00:00 5.9 2 Nordeste 4 Noroeste 0 -- -- 95
2020-03-07 23:00:00 6.6 0 Calma 4 Nordeste 0 -- -- 93
2020-03-07 22:00:00 7.6 0 Calma 4 Nordeste 0 -- -- 91
2020-03-07 21:00:00 8.9 0 Calma 3 Norte 0 -- -- 86
2020-03-07 20:00:00 11 0 Calma 9 Oeste 0 -- -- 79
2020-03-07 19:00:00 13.1 5 Norte 14 Noroeste 0 -- -- 68
2020-03-07 18:00:00 14.8 8 Norte 19 Nordeste 0 -- -- 61
2020-03-07 17:00:00 15.6 9 Norte 20 Nordeste 0 -- -- 58
2020-03-07 16:00:00 16.6 6 Norte 19 Norte 0 -- -- 51
2020-03-07 15:00:00 16.6 5 Nordeste 15 Nordeste 0 -- -- 45
2020-03-07 14:00:00 15.8 5 Nordeste 13 Norte 0 -- -- 46
2020-03-07 13:00:00 15.6 4 Este 10 Sudeste 0 -- -- 47
2020-03-07 12:00:00 13.5 3 Sudoeste 5 Oeste 0 -- -- 67
2020-03-07 11:00:00 10.7 0 Calma 10 Nordeste 0 -- -- 86
2020-03-07 10:00:00 9.2 3 Nordeste 9 Norte 0 -- -- 94
2020-03-07 09:00:00 8 0 Calma 3 Nordeste 0 -- -- 97
2020-03-07 08:00:00 7.8 2 Nordeste 10 Sudeste 0 -- -- 97
2020-03-07 07:00:00 7.6 3 Nordeste 7 Norte 0 -- -- 97
2020-03-07 06:00:00 7.7 2 Nordeste 4 Nordeste 0 -- -- 96
2020-03-07 05:00:00 7.7 2 Este 7 Este 0.4 -- -- 93
2020-03-07 04:00:00 8.1 0 Calma 5 Nordeste 0 -- -- 90
2020-03-07 03:00:00 8.1 0 Calma 8 Este 0 -- -- 88
2020-03-07 02:00:00 8.2 2 Nordeste 14 Este 0 -- -- 85
2020-03-07 01:00:00 8.3 3 Este 11 Nordeste 0 -- -- 85
2020-03-07 00:00:00 8.5 2 Nordeste 9 Nordeste 0.2 -- -- 84
2020-03-06 23:00:00 8.8 5 Nordeste 12 Noroeste 0 -- -- 80
2020-03-06 22:00:00 8.7 3 Nordeste 8 Nordeste 0 -- -- 77
2020-03-06 21:00:00 8.4 3 Este 7 Nordeste 0 -- -- 76
2020-03-06 20:00:00 8.9 4 Norte 8 Oeste 0 -- -- 76
2020-03-06 19:00:00 9.9 5 Oeste 18 Oeste 0 -- -- 63
2020-03-06 18:00:00 9.5 2 Este 43 Oeste 0 -- -- 74
2020-03-06 17:00:00 11.1 4 Sudoeste 27 Sudoeste 0 -- -- 57
2020-03-06 16:00:00 10.3 10 Sudoeste 36 Sudoeste 0 -- -- 63
2020-03-06 15:00:00 9.6 12 Sudoeste 36 Sudoeste 0.2 -- -- 72
2020-03-06 14:00:00 10.2 12 Oeste 26 Sudoeste 0.4 -- -- 68
2020-03-06 13:00:00 9.9 15 Sudoeste 41 Oeste 0 -- -- 67
2020-03-06 12:00:00 8.4 6 Sudoeste 37 Sudoeste 1 -- -- 80
2020-03-06 11:00:00 8.3 5 Norte 17 Nordeste 1 -- -- 82
2020-03-06 10:00:00 6.9 2 Nordeste 23 Sudoeste 2.4 -- -- 87
2020-03-06 09:00:00 6.3 4 Oeste 32 Sudoeste 1.8 -- -- 90
2020-03-06 08:00:00 6.6 11 Oeste 32 Oeste 2.6 -- -- 83
2020-03-06 07:00:00 6.6 3 Nordeste 27 Sudoeste 3.2 -- -- 88
2020-03-06 06:00:00 7.2 7 Oeste 48 Sudoeste 1.2 -- -- 80
2020-03-06 05:00:00 8.9 12 Oeste 31 Oeste 0 -- -- 66
2020-03-06 04:00:00 9.9 11 Noroeste 41 Sur 0 -- -- 58
2020-03-06 03:00:00 8.8 8 Oeste 21 Oeste 0.2 -- -- 75
2020-03-06 02:00:00 9 8 Sudoeste 30 Oeste 1.4 -- -- 74
2020-03-06 01:00:00 9.7 5 Noroeste 25 Oeste 0.6 -- -- 75
2020-03-06 00:00:00 8.7 3 Nordeste 19 Este 0 -- -- 87
2020-03-05 23:00:00 7.7 2 Nordeste 7 Norte 0 -- -- 95
2020-03-05 22:00:00 8.3 3 Nordeste 11 Nordeste 0 -- -- 94
2020-03-05 21:00:00 8.8 0 Calma 5 Nordeste 0 -- -- 94
2020-03-05 20:00:00 9.1 3 Nordeste 8 Norte 0.2 -- -- 91
2020-03-05 19:00:00 10.2 4 Nordeste 8 Oeste 0 -- -- 85
2020-03-05 18:00:00 11 4 Norte 23 Norte 0.4 -- -- 78
2020-03-05 17:00:00 12.8 6 Sudoeste 24 Sudoeste 0 -- -- 64
2020-03-05 16:00:00 12.5 9 Oeste 24 Sudoeste 0 -- -- 67
2020-03-05 15:00:00 12 7 Sudoeste 23 Sudoeste 0.8 -- -- 77
2020-03-05 14:00:00 12.8 12 Oeste 35 Sur 0 -- -- 65
2020-03-05 13:00:00 12.2 8 Oeste 42 Oeste 0.4 -- -- 75
2020-03-05 12:00:00 14.6 17 Oeste 58 Sudoeste -- -- -- 55
2020-03-05 11:00:00 15.8 22 Oeste 58 Oeste 0 -- -- 43
2020-03-05 10:00:00 15.2 26 Oeste 62 Sudoeste 0 -- -- 45
2020-03-05 09:00:00 14.4 22 Oeste 59 Oeste 0 -- -- 49
2020-03-05 08:00:00 14 14 Oeste 43 Oeste 0.2 -- -- 58
2020-03-05 07:00:00 12.9 9 Noroeste 35 Oeste 2.4 -- -- 78
2020-03-05 06:00:00 14.4 8 Noroeste 32 Noroeste 0.2 -- -- 81
2020-03-05 05:00:00 15.1 2 Sur 10 Oeste 0 -- -- 73
2020-03-05 04:00:00 18.3 3 Sur 18 Sudoeste 0 -- -- 56
2020-03-05 03:00:00 19 4 Sudeste 21 Sudeste 0 -- -- 51
2020-03-05 02:00:00 18.3 7 Sudeste 21 Sudoeste 0 -- -- 56
2020-03-05 01:00:00 13.6 2 Norte 9 Nordeste 0 -- -- 81
2020-03-05 00:00:00 13.6 0 Calma 5 Sur 0 -- -- 82
2020-03-04 23:00:00 14.4 0 Calma 6 Norte 0 -- -- 77
2020-03-04 22:00:00 15.7 3 Nordeste 8 Sudoeste 0 -- -- 69
2020-03-04 21:00:00 17.6 2 Sudoeste 15 Sudoeste 0 -- -- 61
2020-03-04 20:00:00 19.3 6 Sudeste 18 Sudeste 0 -- -- 45
2020-03-04 19:00:00 18.3 2 Norte 13 Nordeste 0 -- -- 59
2020-03-04 18:00:00 20.7 4 Noroeste 14 Sur 0 -- -- 42
2020-03-04 17:00:00 21.9 8 Noroeste 16 Noroeste 0 -- -- 46
2020-03-04 16:00:00 22.8 5 Nordeste 14 Nordeste 0 -- -- 46
2020-03-04 15:00:00 22.8 7 Este 17 Este 0 -- -- 46
2020-03-04 14:00:00 21.3 3 Oeste 8 Oeste 0 -- -- 51
2020-03-04 13:00:00 19.5 4 Oeste 7 Oeste 0 -- -- 57
2020-03-04 12:00:00 17.1 0 Calma 12 Este 0 -- -- 68
2020-03-04 11:00:00 15.3 4 Este 23 Este 0 -- -- 75
2020-03-04 10:00:00 11.7 6 Nordeste 21 Nordeste 0 -- -- 90
2020-03-04 09:00:00 9.4 2 Nordeste 8 Nordeste 0 -- -- 98
2020-03-04 08:00:00 9.1 0 Calma 14 Nordeste 0 -- -- 98
2020-03-04 07:00:00 9.4 0 Calma 9 Norte 0 -- -- 98
2020-03-04 06:00:00 9.7 4 Norte 9 Norte 0 -- -- 98
2020-03-04 05:00:00 10 2 Nordeste 8 Nordeste 0 -- -- 97
2020-03-04 04:00:00 10.1 0 Calma 9 Sur 0 -- -- 95
2020-03-04 03:00:00 11 0 Calma 9 Este 0 -- -- 94
2020-03-04 02:00:00 11.5 3 Oeste 15 Nordeste 0 -- -- 94
2020-03-04 01:00:00 11.5 5 Este 12 Este 0.8 -- -- 94
2020-03-04 00:00:00 11.7 0 Calma 9 Sur 0.2 -- -- 95
2020-03-03 23:00:00 11.8 4 Nordeste 14 Nordeste 0.2 -- -- 94
2020-03-03 22:00:00 12.2 3 Nordeste 7 Nordeste 0.4 -- -- 92
2020-03-03 21:00:00 13 3 Este 12 Nordeste 0 -- -- 82
2020-03-03 20:00:00 13.5 3 Este 10 Este 0 -- -- 80
2020-03-03 19:00:00 14.4 3 Sur 12 Sudeste 0 -- -- 77
2020-03-03 18:00:00 15 4 Nordeste 19 Nordeste 0 -- -- 75
2020-03-03 17:00:00 16.7 12 Norte 26 Oeste 0 -- -- 66
2020-03-03 16:00:00 20 8 Oeste 34 Sudoeste 0 -- -- 43
2020-03-03 15:00:00 20.2 16 Sudoeste 43 Sudoeste 0 -- -- 42
2020-03-03 14:00:00 20.2 20 Oeste 44 Noroeste 0 -- -- 41
2020-03-03 13:00:00 20.7 18 Oeste 50 Sudoeste 0 -- -- 38
2020-03-03 12:00:00 21.9 22 Sudoeste 80 Oeste 0 -- -- 33
2020-03-03 11:00:00 21.7 23 Oeste 84 Oeste 0 -- -- 32
2020-03-03 10:00:00 20.5 18 Oeste 60 Noroeste 0 -- -- 43
2020-03-03 09:00:00 20 22 Oeste 68 Oeste 0.2 -- -- 47
2020-03-03 08:00:00 17.9 20 Oeste 48 Oeste 0 -- -- 54
2020-03-03 07:00:00 7.7 9 Norte 19 Nordeste 0 -- -- 96
2020-03-03 06:00:00 6.7 6 Nordeste 10 Nordeste 1.4 -- -- 97
2020-03-03 05:00:00 6.6 3 Sudoeste 8 Nordeste 2.6 -- -- 95
2020-03-03 04:00:00 7.4 2 Norte 14 Este 0.4 -- -- 84
2020-03-03 03:00:00 7.2 4 Nordeste 14 Nordeste 0 -- -- 83
2020-03-03 02:00:00 6.9 8 Este 17 Este 0 -- -- 81
2020-03-03 01:00:00 6.5 3 Nordeste 12 Nordeste 0 -- -- 85
2020-03-03 00:00:00 6.8 3 Norte 12 Norte 0 -- -- 83
2020-03-02 23:00:00 7.3 3 Norte 12 Norte 0 -- -- 78
2020-03-02 22:00:00 6.6 0 Calma 17 Este 0 -- -- 87
2020-03-02 21:00:00 7.1 4 Sudeste 13 Sudeste 0 -- -- 84
2020-03-02 20:00:00 7 3 Norte 21 Noroeste 0 -- -- 84
2020-03-02 19:00:00 9.4 12 Noroeste 27 Oeste 0 -- -- 66
2020-03-02 18:00:00 10.4 7 Sudoeste 27 Sudoeste 0 -- -- 56
2020-03-02 17:00:00 9.6 7 Sudoeste 38 Sudoeste 0.2 -- -- 68
2020-03-02 16:00:00 11.3 12 Sudoeste 31 Sur 0 -- -- 56
2020-03-02 15:00:00 9.3 17 Oeste 41 Oeste 0.2 -- -- 70
2020-03-02 14:00:00 9.3 11 Noroeste 30 Sudoeste 0 -- -- 70
2020-03-02 13:00:00 9.1 10 Oeste 31 Sudoeste 1.2 -- -- 67
2020-03-02 12:00:00 8.5 6 Noroeste 24 Oeste 1.2 -- -- 68
2020-03-02 11:00:00 6.8 12 Sudoeste 36 Sudoeste 2.8 -- -- 82
2020-03-02 10:00:00 7.1 5 Nordeste 21 Sudoeste 0.6 -- -- 89
2020-03-02 09:00:00 6.9 6 Norte 33 Noroeste 3.6 -- -- 86
2020-03-02 08:00:00 7.6 8 Oeste 30 Sur 3.8 -- -- 79
2020-03-02 07:00:00 8.4 16 Oeste 37 Oeste 1.6 -- -- 74
2020-03-02 06:00:00 9.3 5 Noroeste 31 Sudoeste 1.4 -- -- 78
2020-03-02 05:00:00 9.6 6 Noroeste 41 Oeste 1.6 -- -- 84
2020-03-02 04:00:00 10.2 5 Oeste 22 Noroeste 3.2 -- -- 88
2020-03-02 03:00:00 9.8 4 Norte 10 Oeste 7 -- -- 96
2020-03-02 02:00:00 9.9 6 Oeste 19 Oeste 4 -- -- 96
2020-03-02 01:00:00 10.3 3 Sur 24 Sur 4.8 -- -- 92
2020-03-02 00:00:00 10.9 5 Sudeste 14 Sur 1.8 -- -- 84
2020-03-01 23:00:00 12.1 2 Sudoeste 8 Sur 0.6 -- -- 85
2020-03-01 22:00:00 13.8 3 Sudoeste 8 Oeste 0 -- -- 63
2020-03-01 21:00:00 15.1 4 Nordeste 13 Norte 0 -- -- 50
2020-03-01 20:00:00 15.4 6 Nordeste 14 Norte 0 -- -- 49
2020-03-01 19:00:00 16.9 3 Norte 12 Sudoeste 0 -- -- 45
2020-03-01 18:00:00 18 5 Sur 23 Noroeste 0 -- -- 34
2020-03-01 17:00:00 19.3 6 Sur 22 Oeste 0 -- -- 31
2020-03-01 16:00:00 20 7 Noroeste 29 Oeste 0 -- -- 28
2020-03-01 15:00:00 20 6 Nordeste 23 Norte 0 -- -- 36
2020-03-01 14:00:00 18.9 9 Norte 22 Norte 0 -- -- 37
2020-03-01 13:00:00 18.9 9 Norte 18 Nordeste 0 -- -- 33
2020-03-01 12:00:00 17.7 8 Oeste 29 Oeste 0 -- -- 38
2020-03-01 11:00:00 16.5 7 Sudoeste 24 Oeste 0 -- -- 38
2020-03-01 10:00:00 15.7 8 Noroeste 37 Oeste 0 -- -- 46
2020-03-01 09:00:00 13.5 8 Oeste 32 Sur 0 -- -- 55
2020-03-01 08:00:00 10.8 4 Nordeste 27 Este 0 -- -- 76
2020-03-01 07:00:00 12.1 10 Sudeste 49 Oeste 0.6 -- -- 68
2020-03-01 06:00:00 13.7 8 Sur 37 Este 0 -- -- 51
2020-03-01 05:00:00 7.4 3 Oeste 26 Norte 0 -- -- 83
2020-03-01 04:00:00 6 3 Sur 9 Oeste 0 -- -- 89
2020-03-01 03:00:00 6 2 Nordeste 12 Nordeste 0 -- -- 88
2020-03-01 02:00:00 6.3 0 Calma 4 Nordeste 0 -- -- 87
2020-03-01 01:00:00 7.6 2 Este 6 Oeste 0 -- -- 82
2020-03-01 00:00:00 9 2 Norte 5 Noroeste 0 -- -- 76
2020-02-29 23:00:00 10 0 Calma 6 Nordeste 0 -- -- 73
2020-02-29 22:00:00 11.7 0 Calma 16 Nordeste 0 -- -- 64
2020-02-29 21:00:00 12.4 4 Nordeste 11 Norte 0 -- -- 57
2020-02-29 20:00:00 13.1 3 Nordeste 11 Nordeste 0 -- -- 53
2020-02-29 19:00:00 14.3 4 Nordeste 19 Nordeste 0 -- -- 49
2020-02-29 18:00:00 14.9 6 Norte 21 Norte 0 -- -- 49
2020-02-29 17:00:00 15.9 6 Norte 29 Norte 0 -- -- 46
2020-02-29 16:00:00 15.5 11 Norte 23 Norte 0 -- -- 48
2020-02-29 15:00:00 15.9 13 Norte 31 Noroeste 0 -- -- 45
2020-02-29 14:00:00 16.7 9 Noroeste 34 Norte 0 -- -- 39
2020-02-29 13:00:00 17.6 9 Oeste 33 Noroeste 0 -- -- 35
2020-02-29 12:00:00 16.8 18 Oeste 28 Oeste 0 -- -- 37
2020-02-29 11:00:00 14.8 2 Oeste 7 Sudoeste 0 -- -- 68
2020-02-29 10:00:00 12.6 2 Oeste 6 Oeste 0 -- -- 89
2020-02-29 09:00:00 11.7 2 Sur 6 Nordeste 0 -- -- 92
2020-02-29 08:00:00 12.2 0 Calma 9 Nordeste 0.2 -- -- 88
2020-02-29 07:00:00 14.4 6 Nordeste 30 Nordeste 0 -- -- 74
2020-02-29 06:00:00 17.9 9 Sudeste 35 Sur 0 -- -- 46
2020-02-29 05:00:00 18.1 10 Sudeste 22 Sudeste 0 -- -- 42
2020-02-29 04:00:00 17.1 14 Sudeste 27 Sudeste 0 -- -- 39
2020-02-29 03:00:00 17.4 7 Sur 25 Sudoeste 0 -- -- 31
2020-02-29 02:00:00 16.9 6 Sudeste 20 Sudoeste 0 -- -- 29
2020-02-29 01:00:00 16.3 5 Sur 23 Sudoeste 0 -- -- 40
2020-02-29 00:00:00 16.9 4 Sudeste 19 Sudoeste 0 -- -- 34
2020-02-28 23:00:00 10.5 5 Nordeste 10 Nordeste 0 -- -- 74
2020-02-28 22:00:00 10 3 Sudeste 6 Nordeste 0 -- -- 80
2020-02-28 21:00:00 11.1 0 Calma 5 Oeste 0 -- -- 76
2020-02-28 20:00:00 12.8 0 Calma 4 Sudoeste 0 -- -- 68
2020-02-28 19:00:00 15.5 0 Calma 9 Noroeste 0 -- -- 59
2020-02-28 18:00:00 17.9 4 Noroeste 12 Norte 0 -- -- 44
2020-02-28 17:00:00 18 6 Norte 20 Norte 0 -- -- 42
2020-02-28 16:00:00 19.8 7 Norte 17 Norte 0 -- -- 36
2020-02-28 15:00:00 19.6 9 Norte 15 Norte 0 -- -- 35
2020-02-28 14:00:00 18.8 6 Norte 15 Nordeste 0 -- -- 34
2020-02-28 13:00:00 17.5 0 Calma 5 Sudoeste 0 -- -- 38
2020-02-28 12:00:00 14.4 0 Calma 4 Sur 0 -- -- 46
2020-02-28 11:00:00 11.3 2 Sur 4 Sudoeste 0 -- -- 61
2020-02-28 10:00:00 8.5 2 Sur 5 Sudoeste 0 -- -- 73
2020-02-28 09:00:00 6.3 0 Calma 4 Nordeste 0 -- -- 85
2020-02-28 08:00:00 6.4 2 Este 8 Este 0 -- -- 84
2020-02-28 07:00:00 6.6 2 Nordeste 5 Nordeste 0 -- -- 86
2020-02-28 06:00:00 7.1 0 Calma 15 Nordeste 0 -- -- 87
2020-02-28 05:00:00 8.3 5 Nordeste 11 Este 0 -- -- 82
2020-02-28 04:00:00 8.4 2 Nordeste 9 Norte 0 -- -- 87
2020-02-28 03:00:00 9.4 0 Calma 7 Nordeste 0 -- -- 88
2020-02-28 02:00:00 9.4 0 Calma 5 Nordeste 0 -- -- 90
2020-02-28 01:00:00 9.1 0 Calma 3 Nordeste 0 -- -- 92
2020-02-28 00:00:00 9.3 0 Calma 3 Norte 0 -- -- 89